createdAt,value
2023-02-14T00:02:05.583Z,24.10
2023-02-14T00:04:42.552Z,35.13
2023-02-14T00:07:16.606Z,29.88
2023-02-14T00:09:48.853Z,24.27
2023-02-14T00:12:20.974Z,27.00
2023-02-14T00:15:11.614Z,28.25
2023-02-14T00:18:03.057Z,27.80
2023-02-14T00:20:37.253Z,30.40
2023-02-14T00:23:09.278Z,24.42
2023-02-14T00:25:41.334Z,27.23
2023-02-14T00:28:13.320Z,24.38
2023-02-14T00:30:46.489Z,23.90
2023-02-14T00:33:19.614Z,25.50
2023-02-14T00:35:51.528Z,28.17
2023-02-14T00:38:23.549Z,28.60
2023-02-14T00:40:55.507Z,31.50
2023-02-14T00:43:27.555Z,28.13
2023-02-14T00:45:59.772Z,27.70
2023-02-14T00:52:42.770Z,25.77
2023-02-14T00:55:14.899Z,29.50
2023-02-14T00:57:47.055Z,25.23
2023-02-14T01:00:19.539Z,24.05
2023-02-14T01:02:52.087Z,25.80
2023-02-14T01:05:24.146Z,26.58
2023-02-14T01:07:56.176Z,30.33
2023-02-14T01:10:28.218Z,26.23
2023-02-14T01:13:00.291Z,26.38
2023-02-14T01:15:33.431Z,30.50
2023-02-14T01:18:10.419Z,27.80
2023-02-14T01:20:42.736Z,30.67
2023-02-14T01:23:15.546Z,29.75
2023-02-14T01:25:48.072Z,31.00
2023-02-14T01:28:19.998Z,30.85
2023-02-14T01:30:52.162Z,23.55
2023-02-14T01:33:24.418Z,27.70
2023-02-14T01:35:56.380Z,27.75
2023-02-14T01:38:29.090Z,30.60
2023-02-14T01:41:01.534Z,33.03
2023-02-14T01:43:58.729Z,34.70
2023-02-14T01:46:37.623Z,33.13
2023-02-14T01:49:18.552Z,30.95
2023-02-14T01:52:23.616Z,30.30
2023-02-14T01:55:25.256Z,27.92
2023-02-14T01:58:09.608Z,29.40
2023-02-14T02:00:59.444Z,28.73
2023-02-14T02:03:35.208Z,31.20
2023-02-14T02:06:17.441Z,27.88
2023-02-14T02:09:05.833Z,29.38
2023-02-14T02:11:57.689Z,27.95
2023-02-14T02:14:30.211Z,29.30
2023-02-14T02:17:56.720Z,27.55
2023-02-14T02:20:55.344Z,29.27
2023-02-14T02:23:53.022Z,28.23
2023-02-14T02:26:37.434Z,25.98
2023-02-14T02:29:43.638Z,25.40
2023-02-14T02:33:01.634Z,28.30
2023-02-14T02:36:12.044Z,28.63
2023-02-14T02:39:31.554Z,28.70
2023-02-14T02:42:49.034Z,31.33
2023-02-14T02:46:30.349Z,26.90
2023-02-14T02:50:17.306Z,29.88
2023-02-14T02:53:20.971Z,24.77
2023-02-14T02:56:47.617Z,31.08
2023-02-14T02:59:38.565Z,31.90
2023-02-14T03:02:21.059Z,30.00
2023-02-14T03:05:03.046Z,30.42
2023-02-14T03:07:41.780Z,28.65
2023-02-14T03:10:30.001Z,27.38
2023-02-14T03:13:09.141Z,24.65
2023-02-14T03:16:22.093Z,29.63
2023-02-14T03:20:10.742Z,27.83
2023-02-14T03:23:13.606Z,31.00
2023-02-14T03:26:14.280Z,26.88
2023-02-14T03:29:08.654Z,27.30
2023-02-14T03:32:00.610Z,27.50
2023-02-14T03:35:20.432Z,29.05
2023-02-14T03:38:14.230Z,30.63
2023-02-14T03:41:07.119Z,29.10
2023-02-14T03:43:48.511Z,27.88
2023-02-14T03:46:28.570Z,27.35
2023-02-14T03:49:10.265Z,30.23
2023-02-14T03:51:50.706Z,33.25
2023-02-14T03:54:27.489Z,27.15
2023-02-14T03:57:19.564Z,35.00
2023-02-14T03:59:59.857Z,39.00
2023-02-14T04:02:37.114Z,34.85
2023-02-14T04:05:19.310Z,33.33
2023-02-14T04:07:57.572Z,27.20
2023-02-14T04:10:29.803Z,30.60
2023-02-14T04:13:11.357Z,32.78
2023-02-14T04:15:43.584Z,29.55
2023-02-14T04:18:34.200Z,30.25
2023-02-14T04:21:27.207Z,28.23
2023-02-14T04:23:59.089Z,27.77
2023-02-14T04:26:31.104Z,29.13
2023-02-14T04:29:03.719Z,28.98
2023-02-14T04:31:36.147Z,28.42
2023-02-14T04:34:08.261Z,26.02
2023-02-14T04:36:40.543Z,31.85
2023-02-14T04:39:12.553Z,31.65
2023-02-14T04:41:44.486Z,31.20
2023-02-14T04:44:16.497Z,33.00
2023-02-14T04:46:48.582Z,32.65
2023-02-14T04:49:20.812Z,27.92
2023-02-14T04:51:52.904Z,29.67
2023-02-14T04:54:25.100Z,32.55
2023-02-14T04:56:57.329Z,31.73
2023-02-14T04:59:30.644Z,27.52
2023-02-14T05:02:02.634Z,25.20
2023-02-14T05:04:34.813Z,28.80
2023-02-14T05:07:07.640Z,28.52
2023-02-14T05:09:39.666Z,29.70
2023-02-14T05:12:11.737Z,29.08
2023-02-14T05:14:43.930Z,29.23
2023-02-14T05:17:16.393Z,31.55
2023-02-14T05:19:48.411Z,34.63
2023-02-14T05:22:20.562Z,32.58
2023-02-14T05:24:52.606Z,30.20
2023-02-14T05:27:24.628Z,26.70
2023-02-14T05:29:56.720Z,28.15
2023-02-14T05:32:28.761Z,34.92
2023-02-14T05:35:01.860Z,27.50
2023-02-14T05:37:34.687Z,28.50
2023-02-14T05:40:08.265Z,26.30
2023-02-14T05:42:41.169Z,26.80
2023-02-14T05:45:14.062Z,35.25
2023-02-14T05:47:48.627Z,33.03
2023-02-14T05:50:21.025Z,27.23
2023-02-14T05:52:52.999Z,28.50
2023-02-14T05:55:26.292Z,26.60
2023-02-14T05:57:58.555Z,29.63
2023-02-14T06:00:30.760Z,26.05
2023-02-14T06:03:03.090Z,32.05
2023-02-14T06:05:38.332Z,31.48
2023-02-14T06:08:10.742Z,28.05
2023-02-14T06:10:42.967Z,29.10
2023-02-14T06:13:15.153Z,25.50
2023-02-14T06:15:47.277Z,28.77
2023-02-14T06:18:19.339Z,38.22
2023-02-14T06:20:53.705Z,30.27
2023-02-14T06:23:26.337Z,27.02
2023-02-14T06:25:58.311Z,33.22
2023-02-14T06:28:30.273Z,30.27
2023-02-14T06:31:02.950Z,34.35
2023-02-14T06:33:35.386Z,33.42
2023-02-14T06:36:07.758Z,29.17
2023-02-14T06:38:41.325Z,26.27
2023-02-14T06:41:14.982Z,28.30
2023-02-14T06:43:50.786Z,30.08
2023-02-14T06:46:23.043Z,33.13
2023-02-14T06:48:55.086Z,37.22
2023-02-14T06:51:27.116Z,26.35
2023-02-14T06:53:59.065Z,28.60
2023-02-14T06:56:31.275Z,31.90
2023-02-14T06:59:03.445Z,24.17
2023-02-14T07:01:35.701Z,30.58
2023-02-14T07:04:07.749Z,31.70
2023-02-14T07:06:39.792Z,27.60
2023-02-14T07:09:12.345Z,27.55
2023-02-14T07:11:49.120Z,30.95
2023-02-14T07:14:21.242Z,33.00
2023-02-14T07:16:53.311Z,36.45
2023-02-14T07:19:25.391Z,31.90
2023-02-14T07:21:57.577Z,29.90
2023-02-14T07:24:45.047Z,33.47
2023-02-14T07:27:17.111Z,27.48
2023-02-14T07:29:49.206Z,32.20
2023-02-14T07:32:23.703Z,32.85
2023-02-14T07:34:56.289Z,36.80
2023-02-14T07:37:28.297Z,32.80
2023-02-14T07:40:02.684Z,38.88
2023-02-14T07:42:37.924Z,29.63
2023-02-14T07:45:21.147Z,30.27
2023-02-14T07:47:55.494Z,32.20
2023-02-14T07:50:30.198Z,35.13
2023-02-14T07:53:02.453Z,33.28
2023-02-14T07:55:34.981Z,34.88
2023-02-14T07:58:07.506Z,25.80
2023-02-14T08:00:39.779Z,40.25
2023-02-14T08:03:14.042Z,31.45
2023-02-14T08:05:57.187Z,31.23
2023-02-14T08:08:31.268Z,31.30
2023-02-14T08:11:03.633Z,36.90
2023-02-14T08:13:36.083Z,29.48
2023-02-14T08:16:09.745Z,32.60
2023-02-14T08:18:44.459Z,30.13
2023-02-14T08:21:17.349Z,35.00
2023-02-14T08:23:49.497Z,32.28
2023-02-14T08:26:21.755Z,33.42
2023-02-14T08:28:54.298Z,30.40
2023-02-14T08:31:36.258Z,33.83
2023-02-14T08:34:08.924Z,31.13
2023-02-14T08:36:41.829Z,33.83
2023-02-14T08:39:13.919Z,32.42
2023-02-14T08:41:46.061Z,34.63
2023-02-14T08:44:18.365Z,33.70
2023-02-14T08:47:03.496Z,36.53
2023-02-14T08:49:35.752Z,33.50
2023-02-14T08:52:07.809Z,34.78
2023-02-14T08:54:39.907Z,36.13
2023-02-14T08:57:11.976Z,33.13
2023-02-14T08:59:46.463Z,32.03
2023-02-14T09:02:20.275Z,32.38
2023-02-14T09:04:52.630Z,36.45
2023-02-14T09:07:24.769Z,32.15
2023-02-14T09:09:56.983Z,34.83
2023-02-14T09:12:28.929Z,33.13
2023-02-14T09:15:01.049Z,36.08
2023-02-14T09:17:34.327Z,33.58
2023-02-14T09:20:10.097Z,33.55
2023-02-14T09:22:43.758Z,34.28
2023-02-14T09:25:16.782Z,37.40
2023-02-14T09:27:48.931Z,35.00
2023-02-14T09:30:21.314Z,35.38
2023-02-14T09:32:54.211Z,40.15
2023-02-14T09:35:45.056Z,37.35
2023-02-14T09:38:18.387Z,30.10
2023-02-14T09:40:51.064Z,43.75
2023-02-14T09:43:35.927Z,34.70
2023-02-14T09:46:18.306Z,38.55
2023-02-14T09:48:53.091Z,38.20
2023-02-14T09:51:29.439Z,36.47
2023-02-14T09:54:09.722Z,33.25
2023-02-14T09:56:51.273Z,35.28
2023-02-14T09:59:46.951Z,33.22
2023-02-14T10:02:41.795Z,34.95
2023-02-14T10:05:31.336Z,30.45
2023-02-14T10:08:12.364Z,36.83
2023-02-14T10:11:12.068Z,31.05
2023-02-14T10:14:10.475Z,32.58
2023-02-14T10:17:02.219Z,26.55
2023-02-14T10:20:38.197Z,26.75
2023-02-14T10:23:37.922Z,26.80
2023-02-14T10:26:26.278Z,28.80
2023-02-14T10:29:18.311Z,27.10
2023-02-14T10:32:02.406Z,27.13
2023-02-14T10:34:49.923Z,23.52
2023-02-14T10:37:39.852Z,32.30
2023-02-14T10:41:16.935Z,27.95
2023-02-14T10:44:09.301Z,27.50
2023-02-14T10:47:26.890Z,23.63
2023-02-14T10:50:13.301Z,25.13
2023-02-14T10:53:20.488Z,23.73
2023-02-14T10:56:41.990Z,24.00
2023-02-14T10:59:33.977Z,27.17
2023-02-14T11:02:18.306Z,22.27
2023-02-14T11:04:54.897Z,23.80
2023-02-14T11:07:27.940Z,20.92
2023-02-14T11:10:01.598Z,27.38
2023-02-14T11:12:39.571Z,23.30
2023-02-14T11:15:15.163Z,22.65
2023-02-14T11:18:23.437Z,21.15
2023-02-14T11:21:06.114Z,22.02
2023-02-14T11:23:51.101Z,19.70
2023-02-14T11:26:35.125Z,17.92
2023-02-14T11:29:16.631Z,19.58
2023-02-14T11:32:06.998Z,20.00
2023-02-14T11:34:58.079Z,20.95
2023-02-14T11:37:43.884Z,22.83
2023-02-14T11:40:34.794Z,18.77
2023-02-14T11:43:14.333Z,19.02
2023-02-14T11:46:05.807Z,18.90
2023-02-14T11:49:33.823Z,20.42
2023-02-14T11:52:15.474Z,20.83
2023-02-14T11:54:49.682Z,18.23
2023-02-14T11:57:38.291Z,17.90
2023-02-14T12:00:20.300Z,18.58
2023-02-14T12:02:55.754Z,19.42
2023-02-14T12:05:34.221Z,19.05
2023-02-14T12:08:30.128Z,20.23
2023-02-14T12:11:21.643Z,17.50
2023-02-14T12:14:21.735Z,17.65
2023-02-14T12:17:20.118Z,18.90
2023-02-14T12:20:12.594Z,18.95
2023-02-14T12:23:17.216Z,18.73
2023-02-14T12:26:06.526Z,18.10
2023-02-14T12:29:18.606Z,17.77
2023-02-14T12:32:12.655Z,17.63
2023-02-14T12:35:20.421Z,17.80
2023-02-14T12:38:38.292Z,19.17
2023-02-14T12:41:36.501Z,18.83
2023-02-14T12:44:52.335Z,19.00
2023-02-14T12:48:09.593Z,17.65
2023-02-14T12:51:04.997Z,16.58
2023-02-14T12:54:15.380Z,17.60
2023-02-14T12:57:29.049Z,16.50
2023-02-14T13:00:28.723Z,17.42
2023-02-14T13:03:42.159Z,19.65
2023-02-14T13:06:43.494Z,18.77
2023-02-14T13:10:01.089Z,18.15
2023-02-14T13:12:53.825Z,21.33
2023-02-14T13:16:06.286Z,18.17
2023-02-14T13:19:07.054Z,17.90
2023-02-14T13:22:19.478Z,17.42
2023-02-14T13:24:59.433Z,17.50
2023-02-14T13:27:38.873Z,18.65
2023-02-14T13:30:22.690Z,19.30
2023-02-14T13:33:28.188Z,22.08
2023-02-14T13:36:10.828Z,18.30
2023-02-14T13:38:48.432Z,19.65
2023-02-14T13:41:24.331Z,18.80
2023-02-14T13:44:02.547Z,19.02
2023-02-14T13:46:37.162Z,17.98
2023-02-14T13:49:33.843Z,19.88
2023-02-14T13:52:56.761Z,19.92
2023-02-14T13:55:36.652Z,19.10
2023-02-14T13:58:21.705Z,19.40
2023-02-14T14:00:56.460Z,18.63
2023-02-14T14:03:29.843Z,19.55
2023-02-14T14:06:21.907Z,19.30
2023-02-14T14:08:56.988Z,19.52
2023-02-14T14:11:33.211Z,18.95
2023-02-14T14:14:30.365Z,18.85
2023-02-14T14:17:21.171Z,18.40
2023-02-14T14:19:57.973Z,20.40
2023-02-14T14:22:31.267Z,19.65
2023-02-14T14:25:09.113Z,17.92
2023-02-14T14:27:45.015Z,22.17
2023-02-14T14:30:28.516Z,19.38
2023-02-14T14:33:23.579Z,20.33
2023-02-14T14:36:08.572Z,20.13
2023-02-14T14:38:54.267Z,19.25
2023-02-14T14:41:29.310Z,18.65
2023-02-14T14:44:05.694Z,18.88
2023-02-14T14:46:38.097Z,21.35
2023-02-14T14:49:11.971Z,19.85
2023-02-14T14:51:48.165Z,18.58
2023-02-14T14:54:22.791Z,21.42
2023-02-14T14:57:03.540Z,18.38
2023-02-14T14:59:37.384Z,22.90
2023-02-14T15:02:26.640Z,22.40
2023-02-14T15:05:17.555Z,18.88
2023-02-14T15:08:22.937Z,23.90
2023-02-14T15:11:03.896Z,18.65
2023-02-14T15:13:53.499Z,21.10
2023-02-14T15:16:25.747Z,20.08
2023-02-14T15:19:11.621Z,19.55
2023-02-14T15:21:51.136Z,17.98
2023-02-14T15:24:23.645Z,20.98
2023-02-14T15:26:57.890Z,24.80
2023-02-14T15:29:32.453Z,20.90
2023-02-14T15:32:05.446Z,20.73
2023-02-14T15:34:40.190Z,18.45
2023-02-14T15:37:13.561Z,19.60
2023-02-14T15:40:01.183Z,19.70
2023-02-14T15:42:40.856Z,19.83
2023-02-14T15:45:28.321Z,20.48
2023-02-14T15:48:05.380Z,20.77
2023-02-14T15:50:54.764Z,20.63
2023-02-14T15:53:34.310Z,18.52
2023-02-14T15:56:26.219Z,20.55
2023-02-14T15:59:04.466Z,19.00
2023-02-14T16:02:20.580Z,19.42
2023-02-14T16:05:23.848Z,20.40
2023-02-14T16:07:57.645Z,19.88
2023-02-14T16:10:35.868Z,18.48
2023-02-14T16:13:14.977Z,25.27
2023-02-14T16:15:59.848Z,23.05
2023-02-14T16:18:41.031Z,21.55
2023-02-14T16:21:29.737Z,23.73
2023-02-14T16:24:11.692Z,22.13
2023-02-14T16:26:45.086Z,22.80
2023-02-14T16:29:22.150Z,20.95
2023-02-14T16:32:14.830Z,22.73
2023-02-14T16:35:00.874Z,26.52
2023-02-14T16:37:34.101Z,20.60
2023-02-14T16:40:14.173Z,22.85
2023-02-14T16:42:47.387Z,20.95
2023-02-14T16:45:20.661Z,19.58
2023-02-14T16:47:52.841Z,19.17
2023-02-14T16:50:28.100Z,21.30
2023-02-14T16:53:01.396Z,21.35
2023-02-14T16:55:34.977Z,22.92
2023-02-14T16:58:08.317Z,22.42
2023-02-14T17:00:40.884Z,20.50
2023-02-14T17:03:13.090Z,20.70
2023-02-14T17:05:45.842Z,21.58
2023-02-14T17:08:19.442Z,21.52
2023-02-14T17:10:53.785Z,18.92
2023-02-14T17:13:30.966Z,19.08
2023-02-14T17:16:07.071Z,24.13
2023-02-14T17:18:42.252Z,24.58
2023-02-14T17:21:21.968Z,24.45
2023-02-14T17:23:56.773Z,22.00
2023-02-14T17:26:29.592Z,23.98
2023-02-14T17:29:04.441Z,22.08
2023-02-14T17:31:39.167Z,22.90
2023-02-14T17:34:12.599Z,22.02
2023-02-14T17:36:45.703Z,19.75
2023-02-14T17:39:19.090Z,25.00
2023-02-14T17:41:51.489Z,22.27
2023-02-14T17:44:24.333Z,24.50
2023-02-14T17:46:58.230Z,23.67
2023-02-14T17:49:31.124Z,24.02
2023-02-14T17:52:04.143Z,21.45
2023-02-14T17:54:38.993Z,19.90
2023-02-14T17:57:12.980Z,26.48
2023-02-14T17:59:46.828Z,26.50
2023-02-14T18:02:19.282Z,20.90
2023-02-14T18:04:51.494Z,24.45
2023-02-14T18:07:23.819Z,20.88
2023-02-14T18:09:56.223Z,24.35
2023-02-14T18:12:28.549Z,26.30
2023-02-14T18:15:01.973Z,23.52
2023-02-14T18:17:37.191Z,22.25
2023-02-14T18:20:10.769Z,23.90
2023-02-14T18:22:45.651Z,21.73
2023-02-14T18:25:18.296Z,24.33
2023-02-14T18:27:51.692Z,22.00
2023-02-14T18:30:24.310Z,23.23
2023-02-14T18:32:57.025Z,23.30
2023-02-14T18:35:30.078Z,19.73
2023-02-14T18:38:03.017Z,22.58
2023-02-14T18:40:36.467Z,26.58
2023-02-14T18:43:10.061Z,21.48
2023-02-14T18:45:44.441Z,23.85
2023-02-14T18:48:17.784Z,22.52
2023-02-14T18:50:52.704Z,23.52
2023-02-14T18:53:26.265Z,23.23
2023-02-14T18:55:59.500Z,24.67
2023-02-14T18:58:37.589Z,23.90
2023-02-14T19:01:15.056Z,24.10
2023-02-14T19:03:51.573Z,22.92
2023-02-14T19:06:26.683Z,31.05
2023-02-14T19:09:03.820Z,21.55
2023-02-14T19:11:42.964Z,29.90
2023-02-14T19:14:18.880Z,24.38
2023-02-14T19:16:54.542Z,26.48
2023-02-14T19:19:31.906Z,23.83
2023-02-14T19:22:05.421Z,19.80
2023-02-14T19:24:39.363Z,24.27
2023-02-14T19:27:13.529Z,24.50
2023-02-14T19:29:46.974Z,21.60
2023-02-14T19:32:19.595Z,22.85
2023-02-14T19:34:53.050Z,24.98
2023-02-14T19:37:27.390Z,24.30
2023-02-14T19:40:00.837Z,23.80
2023-02-14T19:42:35.992Z,23.90
2023-02-14T19:45:09.824Z,21.10
2023-02-14T19:47:47.338Z,24.25
2023-02-14T19:50:22.059Z,22.08
2023-02-14T19:52:55.633Z,25.90
2023-02-14T19:55:30.222Z,28.35
2023-02-14T19:58:05.446Z,23.13
2023-02-14T20:00:40.228Z,18.52
2023-02-14T20:03:33.809Z,21.70
2023-02-14T20:06:10.480Z,25.73
2023-02-14T20:08:46.880Z,20.08
2023-02-14T20:11:47.505Z,25.70
2023-02-14T20:14:43.601Z,21.80
2023-02-14T20:17:27.109Z,22.25
2023-02-14T20:20:15.037Z,23.50
2023-02-14T20:22:49.504Z,24.20
2023-02-14T20:25:25.457Z,24.42
2023-02-14T20:28:00.285Z,24.27
2023-02-14T20:30:35.432Z,28.35
2023-02-14T20:33:13.450Z,24.17
2023-02-14T20:35:47.745Z,22.15
2023-02-14T20:38:21.980Z,23.65
2023-02-14T20:41:12.487Z,30.02
2023-02-14T20:43:46.945Z,25.17
2023-02-14T20:46:22.351Z,28.40
2023-02-14T20:48:57.018Z,26.05
2023-02-14T20:51:31.852Z,25.38
2023-02-14T20:54:07.639Z,25.20
2023-02-14T20:56:42.294Z,26.63
2023-02-14T20:59:17.351Z,24.10
2023-02-14T21:02:03.989Z,23.70
2023-02-14T21:04:38.228Z,22.73
2023-02-14T21:07:14.463Z,26.35
2023-02-14T21:09:49.749Z,28.33
2023-02-14T21:12:23.937Z,31.55
2023-02-14T21:14:57.940Z,27.73
2023-02-14T21:17:31.860Z,27.02
2023-02-14T21:20:12.013Z,27.40
2023-02-14T21:22:49.215Z,26.60
2023-02-14T21:25:25.847Z,24.23
2023-02-14T21:28:00.216Z,26.08
2023-02-14T21:30:34.203Z,32.55
2023-02-14T21:33:07.446Z,28.17
2023-02-14T21:35:41.070Z,25.08
2023-02-14T21:38:14.518Z,24.58
2023-02-14T21:40:47.569Z,28.17
2023-02-14T21:43:20.765Z,21.50
2023-02-14T21:45:53.569Z,26.50
2023-02-14T21:48:45.616Z,26.98
2023-02-14T21:51:37.744Z,31.85
2023-02-14T21:54:12.100Z,26.35
2023-02-14T21:56:45.524Z,29.02
2023-02-14T21:59:17.986Z,24.92
2023-02-14T22:01:50.225Z,30.27
2023-02-14T22:04:22.333Z,30.77
2023-02-14T22:06:54.496Z,26.50
2023-02-14T22:09:27.989Z,25.13
2023-02-14T22:12:00.125Z,27.20
2023-02-14T22:14:32.217Z,26.80
2023-02-14T22:17:04.605Z,27.42
2023-02-14T22:19:36.978Z,28.00
2023-02-14T22:22:09.133Z,27.90
2023-02-14T22:24:41.186Z,33.20
2023-02-14T22:27:13.290Z,28.05
2023-02-14T22:29:47.060Z,27.08
2023-02-14T22:32:19.311Z,25.85
2023-02-14T22:34:51.658Z,33.33
2023-02-14T22:37:25.696Z,33.30
2023-02-14T22:39:58.369Z,28.10
2023-02-14T22:42:31.594Z,33.08
2023-02-14T22:45:04.302Z,29.42
2023-02-14T22:47:37.674Z,31.02
2023-02-14T22:50:10.277Z,34.88
2023-02-14T22:52:42.743Z,30.35
2023-02-14T22:55:15.619Z,36.88
2023-02-14T22:57:47.913Z,30.63
2023-02-14T23:00:20.495Z,34.45
2023-02-14T23:02:52.846Z,32.63
2023-02-14T23:05:24.923Z,34.08
2023-02-14T23:07:56.968Z,37.00
2023-02-14T23:10:29.448Z,31.25
2023-02-14T23:13:19.778Z,32.45
2023-02-14T23:16:30.018Z,33.58
2023-02-14T23:19:43.241Z,35.42
2023-02-14T23:22:40.088Z,30.08
2023-02-14T23:25:13.001Z,32.08
2023-02-14T23:27:47.513Z,29.20
2023-02-14T23:30:19.827Z,31.80
2023-02-14T23:32:52.206Z,29.95
2023-02-14T23:35:24.293Z,31.00
2023-02-14T23:37:56.282Z,28.70
2023-02-14T23:40:28.323Z,28.73
2023-02-14T23:43:00.262Z,27.92
2023-02-14T23:45:34.965Z,30.92
2023-02-14T23:48:07.272Z,31.25
2023-02-14T23:50:39.317Z,34.55
2023-02-14T23:53:11.551Z,30.38
2023-02-14T23:55:46.040Z,37.33
2023-02-14T23:58:18.054Z,31.35
